sensor_id;sensor_type;location;lat;lon;timestamp;pressure;altitude;pressure_sealevel;temperature;humidity
12722;BME280;6425;50.316;8.114;2023-06-19T00:00:00;985;;;20.7;73.2
12722;BME280;6425;50.316;8.114;2023-06-19T00:03:00;985;;;20.6;73.3
12722;BME280;6425;50.316;8.114;2023-06-19T00:06:00;985;;;20.7;72.8
12722;BME280;6425;50.316;8.114;2023-06-19T00:09:00;985;;;20.7;73.4
12722;BME280;6425;50.316;8.114;2023-06-19T00:12:00;985;;;20.2;75.9
12722;BME280;6425;50.316;8.114;2023-06-19T00:15:00;985;;;19.7;76.5
12722;BME280;6425;50.316;8.114;2023-06-19T00:18:00;985;;;19.7;77.1
12722;BME280;6425;50.316;8.114;2023-06-19T00:21:00;985;;;20;77.1
12722;BME280;6425;50.316;8.114;2023-06-19T00:24:00;985;;;19.7;78.1
12722;BME280;6425;50.316;8.114;2023-06-19T00:27:00;985;;;19.3;79.4
12722;BME280;6425;50.316;8.114;2023-06-19T00:30:00;985;;;19.3;80.4
12722;BME280;6425;50.316;8.114;2023-06-19T00:33:00;985;;;19.2;79.6
12722;BME280;6425;50.316;8.114;2023-06-19T00:36:00;985;;;18.8;81.4
12722;BME280;6425;50.316;8.114;2023-06-19T00:39:00;985;;;18.8;81.2
12722;BME280;6425;50.316;8.114;2023-06-19T00:42:00;985;;;18.6;82.7
12722;BME280;6425;50.316;8.114;2023-06-19T00:45:00;985;;;18.4;83.8
12722;BME280;6425;50.316;8.114;2023-06-19T00:48:00;985;;;18.2;84.7
12722;BME280;6425;50.316;8.114;2023-06-19T00:51:00;985;;;18;85.9
12722;BME280;6425;50.316;8.114;2023-06-19T00:54:00;985;;;18;86.2
12722;BME280;6425;50.316;8.114;2023-06-19T00:57:00;985;;;18;85.9
12722;BME280;6425;50.316;8.114;2023-06-19T01:00:00;985;;;18;83.8
12722;BME280;6425;50.316;8.114;2023-06-19T01:03:00;985;;;18.2;82.9
12722;BME280;6425;50.316;8.114;2023-06-19T01:06:00;985;;;18.3;82.6
12722;BME280;6425;50.316;8.114;2023-06-19T01:09:01;985;;;18.3;83.5
12722;BME280;6425;50.316;8.114;2023-06-19T01:12:01;985;;;18.5;83
12722;BME280;6425;50.316;8.114;2023-06-19T01:15:00;985;;;17.4;87.2
12722;BME280;6425;50.316;8.114;2023-06-19T01:18:00;985;;;17.8;87.3
12722;BME280;6425;50.316;8.114;2023-06-19T01:21:08;985;;;18;86.2
12722;BME280;6425;50.316;8.114;2023-06-19T01:24:00;985;;;18.1;84.6
12722;BME280;6425;50.316;8.114;2023-06-19T01:27:00;985;;;18.1;84
12722;BME280;6425;50.316;8.114;2023-06-19T01:30:01;985;;;18.1;83.8
12722;BME280;6425;50.316;8.114;2023-06-19T01:33:03;985;;;18.2;84.2
12722;BME280;6425;50.316;8.114;2023-06-19T01:36:00;985;;;18.4;83.6
12722;BME280;6425;50.316;8.114;2023-06-19T01:39:00;985;;;18.3;84
12722;BME280;6425;50.316;8.114;2023-06-19T01:42:00;985;;;18.5;83.6
12722;BME280;6425;50.316;8.114;2023-06-19T01:45:00;985;;;18.9;81.6
12722;BME280;6425;50.316;8.114;2023-06-19T01:48:00;985;;;19;81.6
12722;BME280;6425;50.316;8.114;2023-06-19T01:51:00;985;;;18.5;83.3
12722;BME280;6425;50.316;8.114;2023-06-19T01:54:00;985;;;17.8;88.6
12722;BME280;6425;50.316;8.114;2023-06-19T01:57:00;985;;;17.5;92.2
12722;BME280;6425;50.316;8.114;2023-06-19T02:00:00;985;;;17.9;92.3
12722;BME280;6425;50.316;8.114;2023-06-19T02:03:00;985;;;18.2;90.9
12722;BME280;6425;50.316;8.114;2023-06-19T02:06:00;985;;;18;90.6
12722;BME280;6425;50.316;8.114;2023-06-19T02:09:00;985;;;18.3;90.3
12722;BME280;6425;50.316;8.114;2023-06-19T02:12:00;985;;;18.3;90.4
12722;BME280;6425;50.316;8.114;2023-06-19T02:15:00;985;;;18.2;90.8
12722;BME280;6425;50.316;8.114;2023-06-19T02:18:00;985;;;18.1;90.8
12722;BME280;6425;50.316;8.114;2023-06-19T02:21:00;985;;;18.1;91.3
12722;BME280;6425;50.316;8.114;2023-06-19T02:24:00;985;;;17.9;91.7
12722;BME280;6425;50.316;8.114;2023-06-19T02:27:00;985;;;17.9;91
12722;BME280;6425;50.316;8.114;2023-06-19T02:30:00;985;;;17.9;90
12722;BME280;6425;50.316;8.114;2023-06-19T02:33:00;985;;;18;89.9
12722;BME280;6425;50.316;8.114;2023-06-19T02:36:00;985;;;18.3;88
12722;BME280;6425;50.316;8.114;2023-06-19T02:39:00;985;;;18.3;86.7
12722;BME280;6425;50.316;8.114;2023-06-19T02:42:00;985;;;18.7;85.7
12722;BME280;6425;50.316;8.114;2023-06-19T02:45:00;985;;;19;84.7
12722;BME280;6425;50.316;8.114;2023-06-19T02:48:00;985;;;19.2;82.5
12722;BME280;6425;50.316;8.114;2023-06-19T02:51:00;985;;;19.2;83.2
12722;BME280;6425;50.316;8.114;2023-06-19T02:54:00;985;;;18.9;83.4
12722;BME280;6425;50.316;8.114;2023-06-19T02:57:00;985;;;18.8;84.4
12722;BME280;6425;50.316;8.114;2023-06-19T03:00:00;985;;;18.7;85.2
12722;BME280;6425;50.316;8.114;2023-06-19T03:03:00;985;;;19;84.9
12722;BME280;6425;50.316;8.114;2023-06-19T03:06:00;985;;;19.1;83.2
12722;BME280;6425;50.316;8.114;2023-06-19T03:09:00;986;;;19;83.2
12722;BME280;6425;50.316;8.114;2023-06-19T03:12:00;986;;;19;83.7
12722;BME280;6425;50.316;8.114;2023-06-19T03:15:00;986;;;19.1;82.9
12722;BME280;6425;50.316;8.114;2023-06-19T03:18:00;986;;;19.1;82
12722;BME280;6425;50.316;8.114;2023-06-19T03:21:00;986;;;19.2;82.2
12722;BME280;6425;50.316;8.114;2023-06-19T03:24:00;986;;;19.4;79.6
12722;BME280;6425;50.316;8.114;2023-06-19T03:27:00;986;;;19.2;79.5
12722;BME280;6425;50.316;8.114;2023-06-19T03:30:00;986;;;18.6;80.3
12722;BME280;6425;50.316;8.114;2023-06-19T03:33:00;986;;;18.5;81.6
12722;BME280;6425;50.316;8.114;2023-06-19T03:36:00;986;;;18.5;81.3
12722;BME280;6425;50.316;8.114;2023-06-19T03:39:00;986;;;18.6;81.9
12722;BME280;6425;50.316;8.114;2023-06-19T03:42:00;986;;;18.9;81.6
12722;BME280;6425;50.316;8.114;2023-06-19T03:45:00;986;;;19.1;81.1
12722;BME280;6425;50.316;8.114;2023-06-19T03:48:00;986;;;19.1;82
12722;BME280;6425;50.316;8.114;2023-06-19T03:51:00;986;;;19.1;81.1
12722;BME280;6425;50.316;8.114;2023-06-19T03:54:00;986;;;19.2;80.4
12722;BME280;6425;50.316;8.114;2023-06-19T03:57:00;986;;;19.4;77.7
12722;BME280;6425;50.316;8.114;2023-06-19T04:00:00;986;;;19.4;77.5
12722;BME280;6425;50.316;8.114;2023-06-19T04:03:00;986;;;19.4;76.4
12722;BME280;6425;50.316;8.114;2023-06-19T04:06:00;986;;;19.5;75.1
12722;BME280;6425;50.316;8.114;2023-06-19T04:09:00;986;;;19.6;74
12722;BME280;6425;50.316;8.114;2023-06-19T04:12:00;986;;;19.6;72.4
12722;BME280;6425;50.316;8.114;2023-06-19T04:15:00;986;;;19.8;71.2
12722;BME280;6425;50.316;8.114;2023-06-19T04:18:00;986;;;19.8;71
12722;BME280;6425;50.316;8.114;2023-06-19T04:21:00;986;;;19.7;71.2
12722;BME280;6425;50.316;8.114;2023-06-19T04:24:00;986;;;20;70.9
12722;BME280;6425;50.316;8.114;2023-06-19T04:27:00;986;;;20.2;69.2
12722;BME280;6425;50.316;8.114;2023-06-19T04:30:00;986;;;20.4;68.6
12722;BME280;6425;50.316;8.114;2023-06-19T04:33:00;986;;;20.1;70.4
12722;BME280;6425;50.316;8.114;2023-06-19T04:36:00;986;;;20;70.8
12722;BME280;6425;50.316;8.114;2023-06-19T04:39:00;986;;;19.8;72.2
12722;BME280;6425;50.316;8.114;2023-06-19T04:42:00;986;;;19.7;73.7
12722;BME280;6425;50.316;8.114;2023-06-19T04:45:00;986;;;19.6;74.3
12722;BME280;6425;50.316;8.114;2023-06-19T04:48:00;986;;;19.7;74.6
12722;BME280;6425;50.316;8.114;2023-06-19T04:51:00;986;;;19.8;74.6
12722;BME280;6425;50.316;8.114;2023-06-19T04:54:00;986;;;19.8;74.7
12722;BME280;6425;50.316;8.114;2023-06-19T04:57:00;986;;;20;72.9
12722;BME280;6425;50.316;8.114;2023-06-19T05:00:00;986;;;20;72.6
12722;BME280;6425;50.316;8.114;2023-06-19T05:03:00;986;;;19.9;74
12722;BME280;6425;50.316;8.114;2023-06-19T05:06:00;986;;;19.9;74.5
12722;BME280;6425;50.316;8.114;2023-06-19T05:09:00;986;;;19.9;75
12722;BME280;6425;50.316;8.114;2023-06-19T05:12:00;986;;;19.9;74.3
12722;BME280;6425;50.316;8.114;2023-06-19T05:15:00;986;;;19.9;74.5
12722;BME280;6425;50.316;8.114;2023-06-19T05:18:00;986;;;20;72.9
12722;BME280;6425;50.316;8.114;2023-06-19T05:21:00;986;;;20.1;72.1
12722;BME280;6425;50.316;8.114;2023-06-19T05:24:00;986;;;20.2;72.3
12722;BME280;6425;50.316;8.114;2023-06-19T05:27:00;986;;;20.3;71.1
12722;BME280;6425;50.316;8.114;2023-06-19T05:30:00;986;;;20.4;72.1
12722;BME280;6425;50.316;8.114;2023-06-19T05:33:00;986;;;20.7;71.1
12722;BME280;6425;50.316;8.114;2023-06-19T05:36:00;986;;;20.9;70.4
12722;BME280;6425;50.316;8.114;2023-06-19T05:39:00;986;;;21.1;69.3
12722;BME280;6425;50.316;8.114;2023-06-19T05:42:00;986;;;20.9;69
12722;BME280;6425;50.316;8.114;2023-06-19T05:45:00;987;;;20.8;68.9
12722;BME280;6425;50.316;8.114;2023-06-19T05:48:00;987;;;20.9;69.6
12722;BME280;6425;50.316;8.114;2023-06-19T05:51:00;987;;;20.9;69.8
12722;BME280;6425;50.316;8.114;2023-06-19T05:54:00;987;;;20.9;68.4
12722;BME280;6425;50.316;8.114;2023-06-19T05:57:00;987;;;21.3;67.7
12722;BME280;6425;50.316;8.114;2023-06-19T06:00:00;987;;;21.5;66.5
12722;BME280;6425;50.316;8.114;2023-06-19T06:03:00;987;;;21.7;66.7
12722;BME280;6425;50.316;8.114;2023-06-19T06:06:00;987;;;21.9;67
12722;BME280;6425;50.316;8.114;2023-06-19T06:09:00;987;;;22.2;65
12722;BME280;6425;50.316;8.114;2023-06-19T06:12:00;987;;;22.2;64.5
12722;BME280;6425;50.316;8.114;2023-06-19T06:15:00;987;;;22.2;64.4
12722;BME280;6425;50.316;8.114;2023-06-19T06:18:00;987;;;21.9;66.1
12722;BME280;6425;50.316;8.114;2023-06-19T06:21:00;987;;;21.8;66.4
12722;BME280;6425;50.316;8.114;2023-06-19T06:24:00;987;;;22.2;65.2
12722;BME280;6425;50.316;8.114;2023-06-19T06:27:00;987;;;22.6;63.8
12722;BME280;6425;50.316;8.114;2023-06-19T06:30:00;987;;;22.4;64.2
12722;BME280;6425;50.316;8.114;2023-06-19T06:33:00;987;;;22.3;63.7
12722;BME280;6425;50.316;8.114;2023-06-19T06:36:00;987;;;22.9;62.1
12722;BME280;6425;50.316;8.114;2023-06-19T06:39:00;987;;;22.5;63.6
12722;BME280;6425;50.316;8.114;2023-06-19T06:42:00;987;;;22;65.3
12722;BME280;6425;50.316;8.114;2023-06-19T06:45:00;987;;;21.6;69
12722;BME280;6425;50.316;8.114;2023-06-19T06:48:00;987;;;21.6;69.1
12722;BME280;6425;50.316;8.114;2023-06-19T06:51:00;988;;;21.6;67.7
12722;BME280;6425;50.316;8.114;2023-06-19T06:54:00;987;;;21.4;69.5
12722;BME280;6425;50.316;8.114;2023-06-19T06:57:00;987;;;21.7;69.8
12722;BME280;6425;50.316;8.114;2023-06-19T07:00:00;987;;;21.9;68.1
12722;BME280;6425;50.316;8.114;2023-06-19T07:03:00;987;;;21.9;68.5
12722;BME280;6425;50.316;8.114;2023-06-19T07:06:00;987;;;21.6;69.9
12722;BME280;6425;50.316;8.114;2023-06-19T07:09:00;987;;;21.3;71.3
12722;BME280;6425;50.316;8.114;2023-06-19T07:12:00;987;;;21.1;72.1
12722;BME280;6425;50.316;8.114;2023-06-19T07:15:00;987;;;21;73.4
12722;BME280;6425;50.316;8.114;2023-06-19T07:18:00;987;;;21.3;73
12722;BME280;6425;50.316;8.114;2023-06-19T07:21:00;988;;;21.6;71.3
12722;BME280;6425;50.316;8.114;2023-06-19T07:24:00;988;;;21.6;71.1
12722;BME280;6425;50.316;8.114;2023-06-19T07:27:00;988;;;21.5;71.3
12722;BME280;6425;50.316;8.114;2023-06-19T07:30:00;988;;;21.5;71.8
12722;BME280;6425;50.316;8.114;2023-06-19T07:33:00;988;;;21.2;73.1
12722;BME280;6425;50.316;8.114;2023-06-19T07:36:00;988;;;21.3;73.2
12722;BME280;6425;50.316;8.114;2023-06-19T07:39:00;988;;;21.2;73.4
12722;BME280;6425;50.316;8.114;2023-06-19T07:42:00;988;;;21.2;74.1
12722;BME280;6425;50.316;8.114;2023-06-19T07:45:00;988;;;21.3;73.9
12722;BME280;6425;50.316;8.114;2023-06-19T07:48:00;988;;;21.4;72.9
12722;BME280;6425;50.316;8.114;2023-06-19T07:51:00;988;;;21.8;70.7
12722;BME280;6425;50.316;8.114;2023-06-19T07:54:00;988;;;21.9;71.3
12722;BME280;6425;50.316;8.114;2023-06-19T07:57:00;988;;;21.9;70.1
12722;BME280;6425;50.316;8.114;2023-06-19T08:00:00;988;;;21.6;71.3
12722;BME280;6425;50.316;8.114;2023-06-19T08:03:00;988;;;21.5;70.7
12722;BME280;6425;50.316;8.114;2023-06-19T08:06:00;988;;;21.6;71.3
12722;BME280;6425;50.316;8.114;2023-06-19T08:09:00;988;;;21.8;70.8
12722;BME280;6425;50.316;8.114;2023-06-19T08:12:00;988;;;22;70.8
12722;BME280;6425;50.316;8.114;2023-06-19T08:15:00;988;;;22.1;69.6
12722;BME280;6425;50.316;8.114;2023-06-19T08:18:00;988;;;21.9;70.8
12722;BME280;6425;50.316;8.114;2023-06-19T08:21:00;988;;;22.4;70
12722;BME280;6425;50.316;8.114;2023-06-19T08:24:00;988;;;22.4;67.9
12722;BME280;6425;50.316;8.114;2023-06-19T08:27:00;988;;;22.8;67.5
12722;BME280;6425;50.316;8.114;2023-06-19T08:30:00;988;;;22.7;67.5
12722;BME280;6425;50.316;8.114;2023-06-19T08:33:00;988;;;22.1;68.5
12722;BME280;6425;50.316;8.114;2023-06-19T08:36:00;988;;;22.4;69.1
12722;BME280;6425;50.316;8.114;2023-06-19T08:39:00;988;;;22.5;67.1
12722;BME280;6425;50.316;8.114;2023-06-19T08:42:00;988;;;22.2;69.4
12722;BME280;6425;50.316;8.114;2023-06-19T08:45:00;988;;;21.9;68.3
12722;BME280;6425;50.316;8.114;2023-06-19T08:48:00;988;;;21.7;68.7
12722;BME280;6425;50.316;8.114;2023-06-19T08:51:00;988;;;21.8;69.3
12722;BME280;6425;50.316;8.114;2023-06-19T08:54:01;988;;;22.3;69.2
12722;BME280;6425;50.316;8.114;2023-06-19T08:57:00;988;;;22.6;66.4
12722;BME280;6425;50.316;8.114;2023-06-19T09:00:00;988;;;22.6;67
12722;BME280;6425;50.316;8.114;2023-06-19T09:03:00;988;;;22.8;64.4
12722;BME280;6425;50.316;8.114;2023-06-19T09:06:02;988;;;22.7;65.5
12722;BME280;6425;50.316;8.114;2023-06-19T09:09:00;988;;;23.2;65
12722;BME280;6425;50.316;8.114;2023-06-19T09:12:00;988;;;23.2;63.8
12722;BME280;6425;50.316;8.114;2023-06-19T09:15:00;988;;;22.5;65.8
12722;BME280;6425;50.316;8.114;2023-06-19T09:18:00;988;;;22.5;66.5
12722;BME280;6425;50.316;8.114;2023-06-19T09:21:00;988;;;23;63.5
12722;BME280;6425;50.316;8.114;2023-06-19T09:24:02;988;;;23;63.5
12722;BME280;6425;50.316;8.114;2023-06-19T09:27:05;988;;;23.4;63.9
12722;BME280;6425;50.316;8.114;2023-06-19T09:30:00;988;;;24.5;59.8
12722;BME280;6425;50.316;8.114;2023-06-19T09:33:05;988;;;24.2;60.1
12722;BME280;6425;50.316;8.114;2023-06-19T09:36:00;988;;;23.4;60.7
12722;BME280;6425;50.316;8.114;2023-06-19T09:39:00;988;;;23.7;60.4
12722;BME280;6425;50.316;8.114;2023-06-19T09:42:00;988;;;24.5;60.8
12722;BME280;6425;50.316;8.114;2023-06-19T09:45:00;988;;;24.5;59
12722;BME280;6425;50.316;8.114;2023-06-19T09:48:00;988;;;24.7;57.3
12722;BME280;6425;50.316;8.114;2023-06-19T09:51:01;988;;;23.7;59.3
12722;BME280;6425;50.316;8.114;2023-06-19T09:54:00;988;;;23.5;60.3
12722;BME280;6425;50.316;8.114;2023-06-19T09:57:00;988;;;23.4;60
12722;BME280;6425;50.316;8.114;2023-06-19T10:00:00;988;;;23.6;61.5
12722;BME280;6425;50.316;8.114;2023-06-19T10:03:00;988;;;23.5;59.4
12722;BME280;6425;50.316;8.114;2023-06-19T10:06:00;988;;;23.8;60.5
12722;BME280;6425;50.316;8.114;2023-06-19T10:09:07;988;;;23.9;59.2
12722;BME280;6425;50.316;8.114;2023-06-19T10:12:00;988;;;24.3;58.7
12722;BME280;6425;50.316;8.114;2023-06-19T10:15:08;988;;;24.2;57.6
12722;BME280;6425;50.316;8.114;2023-06-19T10:18:00;988;;;24.4;58.9
12722;BME280;6425;50.316;8.114;2023-06-19T10:21:00;988;;;25.6;55.6
12722;BME280;6425;50.316;8.114;2023-06-19T10:24:01;988;;;24.6;55.7
12722;BME280;6425;50.316;8.114;2023-06-19T10:27:00;988;;;24.4;58
12722;BME280;6425;50.316;8.114;2023-06-19T10:30:00;988;;;25.6;53.6
12722;BME280;6425;50.316;8.114;2023-06-19T10:33:00;988;;;25.7;54.6
12722;BME280;6425;50.316;8.114;2023-06-19T10:36:00;988;;;25.6;53.1
12722;BME280;6425;50.316;8.114;2023-06-19T10:39:00;988;;;25.6;52.2
12722;BME280;6425;50.316;8.114;2023-06-19T10:42:00;988;;;24.9;53.5
12722;BME280;6425;50.316;8.114;2023-06-19T10:45:01;988;;;25;53.4
12722;BME280;6425;50.316;8.114;2023-06-19T10:48:00;988;;;25.4;53.1
12722;BME280;6425;50.316;8.114;2023-06-19T10:51:00;988;;;25.1;53.3
12722;BME280;6425;50.316;8.114;2023-06-19T10:54:00;988;;;25.7;53.6
12722;BME280;6425;50.316;8.114;2023-06-19T10:57:03;988;;;25.8;51.5
12722;BME280;6425;50.316;8.114;2023-06-19T11:00:00;988;;;25.4;49.9
12722;BME280;6425;50.316;8.114;2023-06-19T11:03:00;988;;;25.6;49.7
12722;BME280;6425;50.316;8.114;2023-06-19T11:06:00;987;;;25.3;50.6
12722;BME280;6425;50.316;8.114;2023-06-19T11:09:00;988;;;25.1;51.7
12722;BME280;6425;50.316;8.114;2023-06-19T11:12:00;988;;;24.8;52.6
12722;BME280;6425;50.316;8.114;2023-06-19T11:15:02;988;;;25;50.7
12722;BME280;6425;50.316;8.114;2023-06-19T11:18:00;988;;;24.8;51.2
12722;BME280;6425;50.316;8.114;2023-06-19T11:21:00;987;;;24.8;53.7
12722;BME280;6425;50.316;8.114;2023-06-19T11:24:00;987;;;24.8;51.8
12722;BME280;6425;50.316;8.114;2023-06-19T11:27:00;988;;;25;50.1
12722;BME280;6425;50.316;8.114;2023-06-19T11:30:00;988;;;25.2;49.8
12722;BME280;6425;50.316;8.114;2023-06-19T11:33:00;988;;;25.4;50.3
12722;BME280;6425;50.316;8.114;2023-06-19T11:36:00;988;;;24.6;51.3
12722;BME280;6425;50.316;8.114;2023-06-19T11:39:00;987;;;24.4;51.9
12722;BME280;6425;50.316;8.114;2023-06-19T11:42:00;988;;;24.7;49.8
12722;BME280;6425;50.316;8.114;2023-06-19T11:45:00;988;;;24.7;49.2
12722;BME280;6425;50.316;8.114;2023-06-19T11:48:00;988;;;24.9;49.6
12722;BME280;6425;50.316;8.114;2023-06-19T11:51:00;987;;;24.8;48.2
12722;BME280;6425;50.316;8.114;2023-06-19T11:54:00;988;;;24.9;48.4
12722;BME280;6425;50.316;8.114;2023-06-19T11:57:00;987;;;25.6;49.2
12722;BME280;6425;50.316;8.114;2023-06-19T12:00:00;987;;;26.2;49.6
12722;BME280;6425;50.316;8.114;2023-06-19T12:03:00;987;;;25.8;48.5
12722;BME280;6425;50.316;8.114;2023-06-19T12:06:00;987;;;26.3;47
12722;BME280;6425;50.316;8.114;2023-06-19T12:09:00;987;;;26.7;47
12722;BME280;6425;50.316;8.114;2023-06-19T12:12:00;987;;;27.6;44
12722;BME280;6425;50.316;8.114;2023-06-19T12:15:00;987;;;27.8;44.2
12722;BME280;6425;50.316;8.114;2023-06-19T12:18:00;987;;;28.8;43.6
12722;BME280;6425;50.316;8.114;2023-06-19T12:21:00;987;;;29.5;40.1
12722;BME280;6425;50.316;8.114;2023-06-19T12:24:00;987;;;29.2;40.4
12722;BME280;6425;50.316;8.114;2023-06-19T12:27:00;987;;;28.4;40.9
12722;BME280;6425;50.316;8.114;2023-06-19T12:30:00;987;;;28.5;41.8
12722;BME280;6425;50.316;8.114;2023-06-19T12:33:00;987;;;28.7;41.9
12722;BME280;6425;50.316;8.114;2023-06-19T12:36:00;987;;;28.1;42.8
12722;BME280;6425;50.316;8.114;2023-06-19T12:39:00;987;;;27.9;44
12722;BME280;6425;50.316;8.114;2023-06-19T12:42:00;987;;;27.9;42.7
12722;BME280;6425;50.316;8.114;2023-06-19T12:45:00;987;;;28.3;42.7
12722;BME280;6425;50.316;8.114;2023-06-19T12:48:00;987;;;29.5;40.3
12722;BME280;6425;50.316;8.114;2023-06-19T12:51:00;987;;;29.9;39.1
12722;BME280;6425;50.316;8.114;2023-06-19T12:54:00;987;;;29.6;38.9
12722;BME280;6425;50.316;8.114;2023-06-19T12:57:01;987;;;29.8;39.1
12722;BME280;6425;50.316;8.114;2023-06-19T13:00:00;987;;;29.7;40.8
12722;BME280;6425;50.316;8.114;2023-06-19T13:03:00;987;;;29.6;39.5
12722;BME280;6425;50.316;8.114;2023-06-19T13:06:00;987;;;29.6;39.5
12722;BME280;6425;50.316;8.114;2023-06-19T13:09:00;987;;;29.5;40.1
12722;BME280;6425;50.316;8.114;2023-06-19T13:12:00;987;;;29.7;39.6
12722;BME280;6425;50.316;8.114;2023-06-19T13:15:00;987;;;29.6;39.7
12722;BME280;6425;50.316;8.114;2023-06-19T13:18:00;987;;;30;39.3
12722;BME280;6425;50.316;8.114;2023-06-19T13:21:00;987;;;30;39.9
12722;BME280;6425;50.316;8.114;2023-06-19T13:24:00;987;;;30.1;39.1
12722;BME280;6425;50.316;8.114;2023-06-19T13:27:00;987;;;30.1;39.3
12722;BME280;6425;50.316;8.114;2023-06-19T13:30:00;987;;;30.1;39.4
12722;BME280;6425;50.316;8.114;2023-06-19T13:33:00;987;;;30.8;37.9
12722;BME280;6425;50.316;8.114;2023-06-19T13:36:00;987;;;31.3;36.2
12722;BME280;6425;50.316;8.114;2023-06-19T13:39:00;987;;;31.6;35.8
12722;BME280;6425;50.316;8.114;2023-06-19T13:42:00;987;;;32.1;35.3
12722;BME280;6425;50.316;8.114;2023-06-19T13:45:00;987;;;31.9;35.4
12722;BME280;6425;50.316;8.114;2023-06-19T13:48:00;987;;;31.8;35.3
12722;BME280;6425;50.316;8.114;2023-06-19T13:51:00;987;;;31.5;36.2
12722;BME280;6425;50.316;8.114;2023-06-19T13:54:00;987;;;31.9;35.7
12722;BME280;6425;50.316;8.114;2023-06-19T13:57:00;987;;;31.3;35.2
12722;BME280;6425;50.316;8.114;2023-06-19T14:00:00;987;;;30.4;35.5
12722;BME280;6425;50.316;8.114;2023-06-19T14:03:00;987;;;30;35.6
12722;BME280;6425;50.316;8.114;2023-06-19T14:06:00;987;;;30.1;36
12722;BME280;6425;50.316;8.114;2023-06-19T14:09:00;987;;;29.6;36.7
12722;BME280;6425;50.316;8.114;2023-06-19T14:12:00;987;;;29.6;37.9
12722;BME280;6425;50.316;8.114;2023-06-19T14:15:00;987;;;30.6;35.4
12722;BME280;6425;50.316;8.114;2023-06-19T14:18:00;987;;;31.9;33.2
12722;BME280;6425;50.316;8.114;2023-06-19T14:21:00;986;;;32.7;32.6
12722;BME280;6425;50.316;8.114;2023-06-19T14:24:00;987;;;32.1;33.5
12722;BME280;6425;50.316;8.114;2023-06-19T14:27:00;986;;;31;33.9
12722;BME280;6425;50.316;8.114;2023-06-19T14:30:00;986;;;30.7;34.5
12722;BME280;6425;50.316;8.114;2023-06-19T14:33:00;986;;;30.8;34.5
12722;BME280;6425;50.316;8.114;2023-06-19T14:36:00;986;;;31.6;33.4
12722;BME280;6425;50.316;8.114;2023-06-19T14:39:00;986;;;32.3;32.8
12722;BME280;6425;50.316;8.114;2023-06-19T14:42:00;986;;;32.6;32.3
12722;BME280;6425;50.316;8.114;2023-06-19T14:45:00;986;;;31;33.9
12722;BME280;6425;50.316;8.114;2023-06-19T14:48:00;987;;;30.1;35.4
12722;BME280;6425;50.316;8.114;2023-06-19T14:51:00;987;;;30.8;35.7
12722;BME280;6425;50.316;8.114;2023-06-19T14:54:00;987;;;30.6;34.8
12722;BME280;6425;50.316;8.114;2023-06-19T14:57:00;987;;;30.3;35
12722;BME280;6425;50.316;8.114;2023-06-19T15:00:00;986;;;29.3;36
12722;BME280;6425;50.316;8.114;2023-06-19T15:03:00;987;;;29.6;36.5
12722;BME280;6425;50.316;8.114;2023-06-19T15:06:00;986;;;30.1;35.3
12722;BME280;6425;50.316;8.114;2023-06-19T15:09:00;986;;;30.4;35.7
12722;BME280;6425;50.316;8.114;2023-06-19T15:12:00;986;;;30.7;36
12722;BME280;6425;50.316;8.114;2023-06-19T15:15:00;986;;;30.8;35.1
12722;BME280;6425;50.316;8.114;2023-06-19T15:18:00;986;;;30.8;35.7
12722;BME280;6425;50.316;8.114;2023-06-19T15:21:00;986;;;31.1;35.1
12722;BME280;6425;50.316;8.114;2023-06-19T15:24:00;986;;;31;34.6
12722;BME280;6425;50.316;8.114;2023-06-19T15:27:00;986;;;31;34.8
12722;BME280;6425;50.316;8.114;2023-06-19T15:30:00;986;;;31;34.5
12722;BME280;6425;50.316;8.114;2023-06-19T15:33:00;986;;;31.2;34.2
12722;BME280;6425;50.316;8.114;2023-06-19T15:36:00;986;;;31.3;35.2
12722;BME280;6425;50.316;8.114;2023-06-19T15:39:00;986;;;30.5;36.1
12722;BME280;6425;50.316;8.114;2023-06-19T15:42:00;986;;;30.7;36.9
12722;BME280;6425;50.316;8.114;2023-06-19T15:45:00;986;;;31;36.1
12722;BME280;6425;50.316;8.114;2023-06-19T15:48:00;986;;;31;36.8
12722;BME280;6425;50.316;8.114;2023-06-19T15:51:00;986;;;31.7;35.8
12722;BME280;6425;50.316;8.114;2023-06-19T15:54:00;986;;;32.1;35.3
12722;BME280;6425;50.316;8.114;2023-06-19T15:57:00;986;;;32;35
12722;BME280;6425;50.316;8.114;2023-06-19T16:00:00;986;;;31.4;35.2
12722;BME280;6425;50.316;8.114;2023-06-19T16:03:00;986;;;30.3;36.8
12722;BME280;6425;50.316;8.114;2023-06-19T16:06:00;986;;;30.2;36.3
12722;BME280;6425;50.316;8.114;2023-06-19T16:09:00;986;;;29;36.7
12722;BME280;6425;50.316;8.114;2023-06-19T16:12:00;986;;;28.9;36.8
12722;BME280;6425;50.316;8.114;2023-06-19T16:15:00;986;;;29.5;35.8
12722;BME280;6425;50.316;8.114;2023-06-19T16:18:00;986;;;29.4;38
12722;BME280;6425;50.316;8.114;2023-06-19T16:21:00;986;;;28.9;36.5
12722;BME280;6425;50.316;8.114;2023-06-19T16:24:00;986;;;29;38
12722;BME280;6425;50.316;8.114;2023-06-19T16:27:00;986;;;29.5;38.9
12722;BME280;6425;50.316;8.114;2023-06-19T16:30:00;986;;;29.6;37.4
12722;BME280;6425;50.316;8.114;2023-06-19T16:33:00;986;;;29.7;36.4
12722;BME280;6425;50.316;8.114;2023-06-19T16:36:00;986;;;29.2;36
12722;BME280;6425;50.316;8.114;2023-06-19T16:39:00;986;;;28.4;37.6
12722;BME280;6425;50.316;8.114;2023-06-19T16:42:00;986;;;27.9;40.2
12722;BME280;6425;50.316;8.114;2023-06-19T16:45:00;986;;;28.1;40.1
12722;BME280;6425;50.316;8.114;2023-06-19T16:48:00;986;;;28.6;39.5
12722;BME280;6425;50.316;8.114;2023-06-19T16:51:00;986;;;29.3;38
12722;BME280;6425;50.316;8.114;2023-06-19T16:54:00;986;;;29.6;37.3
12722;BME280;6425;50.316;8.114;2023-06-19T16:57:00;986;;;28.9;36.6
12722;BME280;6425;50.316;8.114;2023-06-19T17:00:00;986;;;29.3;37.1
12722;BME280;6425;50.316;8.114;2023-06-19T17:03:00;986;;;28.6;39
12722;BME280;6425;50.316;8.114;2023-06-19T17:06:00;986;;;28.2;38.8
12722;BME280;6425;50.316;8.114;2023-06-19T17:09:00;986;;;28.2;40.2
12722;BME280;6425;50.316;8.114;2023-06-19T17:12:00;986;;;28.2;37.9
12722;BME280;6425;50.316;8.114;2023-06-19T17:15:00;986;;;28.5;37.4
12722;BME280;6425;50.316;8.114;2023-06-19T17:18:00;986;;;29.7;35.5
12722;BME280;6425;50.316;8.114;2023-06-19T17:21:00;986;;;29.7;34.4
12722;BME280;6425;50.316;8.114;2023-06-19T17:24:00;986;;;29;34.7
12722;BME280;6425;50.316;8.114;2023-06-19T17:27:00;986;;;29;35.1
12722;BME280;6425;50.316;8.114;2023-06-19T17:30:00;986;;;29.5;34.8
12722;BME280;6425;50.316;8.114;2023-06-19T17:33:00;986;;;30.1;33.5
12722;BME280;6425;50.316;8.114;2023-06-19T17:36:00;986;;;30.3;33.5
12722;BME280;6425;50.316;8.114;2023-06-19T17:39:00;986;;;30;34.9
12722;BME280;6425;50.316;8.114;2023-06-19T17:42:00;986;;;29.6;35
12722;BME280;6425;50.316;8.114;2023-06-19T17:45:00;986;;;29.5;35.9
12722;BME280;6425;50.316;8.114;2023-06-19T17:48:00;986;;;28.5;39.9
12722;BME280;6425;50.316;8.114;2023-06-19T17:51:00;986;;;27.9;39.3
12722;BME280;6425;50.316;8.114;2023-06-19T17:54:00;986;;;27.6;40.9